sensor_id;sensor_type;location;lat;lon;timestamp;P1;durP1;ratioP1;P2;durP2;ratioP2
21681;SDS011;11002;48.256;10.084;2023-04-06T00:01:08;16.30;;;9.68;;
21681;SDS011;11002;48.256;10.084;2023-04-06T00:03:35;12.35;;;9.32;;
21681;SDS011;11002;48.256;10.084;2023-04-06T00:06:03;14.63;;;9.93;;
21681;SDS011;11002;48.256;10.084;2023-04-06T00:08:31;12.65;;;9.48;;
21681;SDS011;11002;48.256;10.084;2023-04-06T00:10:58;12.85;;;9.07;;
21681;SDS011;11002;48.256;10.084;2023-04-06T00:13:26;15.43;;;9.40;;
21681;SDS011;11002;48.256;10.084;2023-04-06T00:15:53;13.60;;;8.88;;
21681;SDS011;11002;48.256;10.084;2023-04-06T00:18:22;14.45;;;9.02;;
21681;SDS011;11002;48.256;10.084;2023-04-06T00:20:50;16.23;;;9.52;;
21681;SDS011;11002;48.256;10.084;2023-04-06T00:23:17;21.10;;;9.45;;
21681;SDS011;11002;48.256;10.084;2023-04-06T00:25:45;13.73;;;9.52;;
21681;SDS011;11002;48.256;10.084;2023-04-06T00:28:12;16.60;;;9.63;;
21681;SDS011;11002;48.256;10.084;2023-04-06T00:30:40;12.93;;;9.13;;
21681;SDS011;11002;48.256;10.084;2023-04-06T00:33:07;14.65;;;9.15;;
21681;SDS011;11002;48.256;10.084;2023-04-06T00:35:36;14.05;;;9.15;;
21681;SDS011;11002;48.256;10.084;2023-04-06T00:38:04;14.13;;;9.32;;
21681;SDS011;11002;48.256;10.084;2023-04-06T00:40:31;15.73;;;8.77;;
21681;SDS011;11002;48.256;10.084;2023-04-06T00:43:00;12.18;;;8.80;;
21681;SDS011;11002;48.256;10.084;2023-04-06T00:45:27;13.40;;;8.07;;
21681;SDS011;11002;48.256;10.084;2023-04-06T00:47:55;12.40;;;9.25;;
21681;SDS011;11002;48.256;10.084;2023-04-06T00:50:23;15.63;;;8.73;;
21681;SDS011;11002;48.256;10.084;2023-04-06T00:52:53;13.18;;;8.80;;
21681;SDS011;11002;48.256;10.084;2023-04-06T00:55:25;14.98;;;8.65;;
21681;SDS011;11002;48.256;10.084;2023-04-06T00:57:53;13.02;;;8.60;;
21681;SDS011;11002;48.256;10.084;2023-04-06T01:00:21;13.45;;;9.57;;
21681;SDS011;11002;48.256;10.084;2023-04-06T01:02:54;12.10;;;9.17;;
21681;SDS011;11002;48.256;10.084;2023-04-06T01:05:26;12.45;;;8.73;;
21681;SDS011;11002;48.256;10.084;2023-04-06T01:07:58;11.68;;;8.90;;
21681;SDS011;11002;48.256;10.084;2023-04-06T01:10:28;17.00;;;8.88;;
21681;SDS011;11002;48.256;10.084;2023-04-06T01:13:07;13.00;;;8.80;;
21681;SDS011;11002;48.256;10.084;2023-04-06T01:15:48;12.38;;;8.30;;
21681;SDS011;11002;48.256;10.084;2023-04-06T01:18:25;13.38;;;8.80;;
21681;SDS011;11002;48.256;10.084;2023-04-06T01:21:01;15.00;;;8.70;;
21681;SDS011;11002;48.256;10.084;2023-04-06T01:23:30;16.73;;;9.68;;
21681;SDS011;11002;48.256;10.084;2023-04-06T01:25:58;12.75;;;8.77;;
21681;SDS011;11002;48.256;10.084;2023-04-06T01:28:28;14.57;;;9.52;;
21681;SDS011;11002;48.256;10.084;2023-04-06T01:31:14;14.13;;;9.05;;
21681;SDS011;11002;48.256;10.084;2023-04-06T01:33:46;13.82;;;8.93;;
21681;SDS011;11002;48.256;10.084;2023-04-06T01:36:17;14.00;;;9.13;;
21681;SDS011;11002;48.256;10.084;2023-04-06T01:38:52;14.20;;;9.45;;
21681;SDS011;11002;48.256;10.084;2023-04-06T01:41:28;16.58;;;9.82;;
21681;SDS011;11002;48.256;10.084;2023-04-06T01:43:55;17.27;;;11.10;;
21681;SDS011;11002;48.256;10.084;2023-04-06T01:46:26;18.75;;;10.90;;
21681;SDS011;11002;48.256;10.084;2023-04-06T01:48:54;18.50;;;11.30;;
21681;SDS011;11002;48.256;10.084;2023-04-06T01:51:30;17.80;;;11.00;;
21681;SDS011;11002;48.256;10.084;2023-04-06T01:54:02;14.80;;;10.20;;
21681;SDS011;11002;48.256;10.084;2023-04-06T01:56:56;15.18;;;9.70;;
21681;SDS011;11002;48.256;10.084;2023-04-06T01:59:31;16.38;;;9.80;;
21681;SDS011;11002;48.256;10.084;2023-04-06T02:02:02;17.50;;;9.75;;
21681;SDS011;11002;48.256;10.084;2023-04-06T02:04:32;16.45;;;10.13;;
21681;SDS011;11002;48.256;10.084;2023-04-06T02:07:08;13.57;;;9.65;;
21681;SDS011;11002;48.256;10.084;2023-04-06T02:09:37;13.48;;;9.15;;
21681;SDS011;11002;48.256;10.084;2023-04-06T02:12:10;17.00;;;10.32;;
21681;SDS011;11002;48.256;10.084;2023-04-06T02:14:37;13.88;;;9.88;;
21681;SDS011;11002;48.256;10.084;2023-04-06T02:17:05;19.65;;;10.38;;
21681;SDS011;11002;48.256;10.084;2023-04-06T02:19:32;14.00;;;9.70;;
21681;SDS011;11002;48.256;10.084;2023-04-06T02:22:00;12.73;;;8.90;;
21681;SDS011;11002;48.256;10.084;2023-04-06T02:24:27;12.68;;;8.88;;
21681;SDS011;11002;48.256;10.084;2023-04-06T02:26:56;12.68;;;8.85;;
21681;SDS011;11002;48.256;10.084;2023-04-06T02:29:24;13.27;;;9.05;;
21681;SDS011;11002;48.256;10.084;2023-04-06T02:31:51;12.20;;;8.65;;
21681;SDS011;11002;48.256;10.084;2023-04-06T02:34:19;12.50;;;8.40;;
21681;SDS011;11002;48.256;10.084;2023-04-06T02:36:50;14.55;;;8.98;;
21681;SDS011;11002;48.256;10.084;2023-04-06T02:39:17;11.20;;;8.85;;
21681;SDS011;11002;48.256;10.084;2023-04-06T02:41:45;13.30;;;8.57;;
21681;SDS011;11002;48.256;10.084;2023-04-06T02:44:22;12.63;;;8.63;;
21681;SDS011;11002;48.256;10.084;2023-04-06T02:46:49;18.98;;;8.63;;
21681;SDS011;11002;48.256;10.084;2023-04-06T02:49:16;14.85;;;9.20;;
21681;SDS011;11002;48.256;10.084;2023-04-06T02:51:44;14.63;;;9.73;;
21681;SDS011;11002;48.256;10.084;2023-04-06T02:54:23;16.38;;;9.57;;
21681;SDS011;11002;48.256;10.084;2023-04-06T02:56:50;14.02;;;8.48;;
21681;SDS011;11002;48.256;10.084;2023-04-06T02:59:19;13.43;;;8.90;;
21681;SDS011;11002;48.256;10.084;2023-04-06T03:01:59;17.30;;;8.90;;
21681;SDS011;11002;48.256;10.084;2023-04-06T03:04:26;13.70;;;9.98;;
21681;SDS011;11002;48.256;10.084;2023-04-06T03:06:56;14.07;;;8.85;;
21681;SDS011;11002;48.256;10.084;2023-04-06T03:09:33;12.85;;;8.40;;
21681;SDS011;11002;48.256;10.084;2023-04-06T03:12:03;11.23;;;8.30;;
21681;SDS011;11002;48.256;10.084;2023-04-06T03:14:42;15.55;;;9.57;;
21681;SDS011;11002;48.256;10.084;2023-04-06T03:17:11;13.68;;;8.77;;
21681;SDS011;11002;48.256;10.084;2023-04-06T03:19:39;14.25;;;8.95;;
21681;SDS011;11002;48.256;10.084;2023-04-06T03:22:08;17.38;;;8.38;;
21681;SDS011;11002;48.256;10.084;2023-04-06T03:24:35;12.27;;;8.63;;
21681;SDS011;11002;48.256;10.084;2023-04-06T03:27:04;11.60;;;8.93;;
21681;SDS011;11002;48.256;10.084;2023-04-06T03:29:33;14.63;;;9.98;;
21681;SDS011;11002;48.256;10.084;2023-04-06T03:32:01;16.63;;;9.40;;
21681;SDS011;11002;48.256;10.084;2023-04-06T03:34:35;13.07;;;9.63;;
21681;SDS011;11002;48.256;10.084;2023-04-06T03:37:02;17.45;;;10.35;;
21681;SDS011;11002;48.256;10.084;2023-04-06T03:39:30;15.55;;;10.18;;
21681;SDS011;11002;48.256;10.084;2023-04-06T03:41:59;13.50;;;9.30;;
21681;SDS011;11002;48.256;10.084;2023-04-06T03:44:32;12.27;;;7.47;;
21681;SDS011;11002;48.256;10.084;2023-04-06T03:47:00;13.52;;;9.75;;
21681;SDS011;11002;48.256;10.084;2023-04-06T03:49:28;13.18;;;9.13;;
21681;SDS011;11002;48.256;10.084;2023-04-06T03:51:58;15.20;;;9.57;;
21681;SDS011;11002;48.256;10.084;2023-04-06T03:54:26;14.13;;;9.48;;
21681;SDS011;11002;48.256;10.084;2023-04-06T03:56:53;12.77;;;9.15;;
21681;SDS011;11002;48.256;10.084;2023-04-06T03:59:21;14.40;;;10.02;;
21681;SDS011;11002;48.256;10.084;2023-04-06T04:01:52;15.60;;;9.65;;
21681;SDS011;11002;48.256;10.084;2023-04-06T04:04:19;15.68;;;10.52;;
21681;SDS011;11002;48.256;10.084;2023-04-06T04:06:47;17.02;;;9.95;;
21681;SDS011;11002;48.256;10.084;2023-04-06T04:09:16;15.23;;;9.43;;
21681;SDS011;11002;48.256;10.084;2023-04-06T04:11:43;12.32;;;8.57;;
21681;SDS011;11002;48.256;10.084;2023-04-06T04:14:11;14.30;;;9.07;;
21681;SDS011;11002;48.256;10.084;2023-04-06T04:16:38;15.75;;;9.48;;
21681;SDS011;11002;48.256;10.084;2023-04-06T04:19:07;15.80;;;8.98;;
21681;SDS011;11002;48.256;10.084;2023-04-06T04:21:41;11.88;;;9.20;;
21681;SDS011;11002;48.256;10.084;2023-04-06T04:24:11;13.95;;;9.52;;
21681;SDS011;11002;48.256;10.084;2023-04-06T04:26:40;12.95;;;9.15;;
21681;SDS011;11002;48.256;10.084;2023-04-06T04:29:08;12.05;;;8.70;;
21681;SDS011;11002;48.256;10.084;2023-04-06T04:31:37;11.32;;;8.52;;
21681;SDS011;11002;48.256;10.084;2023-04-06T04:34:13;15.02;;;9.48;;
21681;SDS011;11002;48.256;10.084;2023-04-06T04:36:41;14.30;;;9.57;;
21681;SDS011;11002;48.256;10.084;2023-04-06T04:39:13;12.90;;;8.90;;
21681;SDS011;11002;48.256;10.084;2023-04-06T04:41:47;14.48;;;9.15;;
21681;SDS011;11002;48.256;10.084;2023-04-06T04:44:14;15.63;;;9.32;;
21681;SDS011;11002;48.256;10.084;2023-04-06T04:46:42;12.98;;;9.63;;
21681;SDS011;11002;48.256;10.084;2023-04-06T04:49:10;14.77;;;8.88;;
21681;SDS011;11002;48.256;10.084;2023-04-06T04:51:39;14.20;;;8.93;;
21681;SDS011;11002;48.256;10.084;2023-04-06T04:54:22;12.30;;;8.98;;
21681;SDS011;11002;48.256;10.084;2023-04-06T04:56:51;15.27;;;9.55;;
21681;SDS011;11002;48.256;10.084;2023-04-06T04:59:40;12.75;;;9.38;;
21681;SDS011;11002;48.256;10.084;2023-04-06T05:02:15;12.23;;;8.48;;
21681;SDS011;11002;48.256;10.084;2023-04-06T05:05:02;12.70;;;8.98;;
21681;SDS011;11002;48.256;10.084;2023-04-06T05:07:30;15.02;;;9.75;;
21681;SDS011;11002;48.256;10.084;2023-04-06T05:09:59;12.80;;;8.77;;
21681;SDS011;11002;48.256;10.084;2023-04-06T05:12:33;13.73;;;9.55;;
21681;SDS011;11002;48.256;10.084;2023-04-06T05:15:06;15.55;;;9.48;;
21681;SDS011;11002;48.256;10.084;2023-04-06T05:17:36;12.27;;;9.20;;
21681;SDS011;11002;48.256;10.084;2023-04-06T05:20:06;13.75;;;9.45;;
21681;SDS011;11002;48.256;10.084;2023-04-06T05:22:42;14.57;;;9.18;;
21681;SDS011;11002;48.256;10.084;2023-04-06T05:25:10;12.77;;;8.30;;
21681;SDS011;11002;48.256;10.084;2023-04-06T05:27:40;13.52;;;9.20;;
21681;SDS011;11002;48.256;10.084;2023-04-06T05:30:23;11.75;;;7.95;;
21681;SDS011;11002;48.256;10.084;2023-04-06T05:32:51;11.10;;;8.65;;
21681;SDS011;11002;48.256;10.084;2023-04-06T05:35:20;13.95;;;10.25;;
21681;SDS011;11002;48.256;10.084;2023-04-06T05:37:52;12.18;;;9.30;;
21681;SDS011;11002;48.256;10.084;2023-04-06T05:40:23;12.90;;;8.52;;
21681;SDS011;11002;48.256;10.084;2023-04-06T05:42:52;14.95;;;9.25;;
21681;SDS011;11002;48.256;10.084;2023-04-06T05:45:20;12.93;;;8.90;;
21681;SDS011;11002;48.256;10.084;2023-04-06T05:47:52;15.02;;;9.00;;
21681;SDS011;11002;48.256;10.084;2023-04-06T05:50:26;14.63;;;9.60;;
21681;SDS011;11002;48.256;10.084;2023-04-06T05:52:55;10.80;;;8.90;;
21681;SDS011;11002;48.256;10.084;2023-04-06T05:55:28;13.43;;;8.93;;
21681;SDS011;11002;48.256;10.084;2023-04-06T05:58:10;12.13;;;8.30;;
21681;SDS011;11002;48.256;10.084;2023-04-06T06:00:37;15.65;;;9.15;;
21681;SDS011;11002;48.256;10.084;2023-04-06T06:03:07;11.85;;;8.63;;
21681;SDS011;11002;48.256;10.084;2023-04-06T06:05:35;13.52;;;9.43;;
21681;SDS011;11002;48.256;10.084;2023-04-06T06:08:08;13.63;;;8.27;;
21681;SDS011;11002;48.256;10.084;2023-04-06T06:10:37;18.50;;;8.63;;
21681;SDS011;11002;48.256;10.084;2023-04-06T06:13:08;13.82;;;8.57;;
21681;SDS011;11002;48.256;10.084;2023-04-06T06:15:37;11.82;;;8.60;;
21681;SDS011;11002;48.256;10.084;2023-04-06T06:18:05;11.52;;;8.13;;
21681;SDS011;11002;48.256;10.084;2023-04-06T06:20:32;11.63;;;8.60;;
21681;SDS011;11002;48.256;10.084;2023-04-06T06:23:04;15.98;;;9.55;;
21681;SDS011;11002;48.256;10.084;2023-04-06T06:25:32;12.13;;;8.38;;
21681;SDS011;11002;48.256;10.084;2023-04-06T06:28:00;14.77;;;8.45;;
21681;SDS011;11002;48.256;10.084;2023-04-06T06:30:31;15.30;;;8.55;;
21681;SDS011;11002;48.256;10.084;2023-04-06T06:32:59;12.43;;;8.38;;
21681;SDS011;11002;48.256;10.084;2023-04-06T06:35:28;17.05;;;8.75;;
21681;SDS011;11002;48.256;10.084;2023-04-06T06:37:59;12.43;;;8.23;;
21681;SDS011;11002;48.256;10.084;2023-04-06T06:40:27;13.65;;;8.68;;
21681;SDS011;11002;48.256;10.084;2023-04-06T06:42:55;19.02;;;8.27;;
21681;SDS011;11002;48.256;10.084;2023-04-06T06:45:33;12.45;;;8.57;;
21681;SDS011;11002;48.256;10.084;2023-04-06T06:48:00;14.07;;;8.80;;
21681;SDS011;11002;48.256;10.084;2023-04-06T06:50:28;12.23;;;8.45;;
21681;SDS011;11002;48.256;10.084;2023-04-06T06:52:55;12.10;;;8.30;;
21681;SDS011;11002;48.256;10.084;2023-04-06T06:55:23;15.15;;;8.70;;
21681;SDS011;11002;48.256;10.084;2023-04-06T06:57:51;10.55;;;8.60;;
21681;SDS011;11002;48.256;10.084;2023-04-06T07:00:18;11.77;;;8.52;;
21681;SDS011;11002;48.256;10.084;2023-04-06T07:02:51;13.85;;;9.18;;
21681;SDS011;11002;48.256;10.084;2023-04-06T07:05:18;14.43;;;8.30;;
21681;SDS011;11002;48.256;10.084;2023-04-06T07:07:46;11.75;;;8.70;;
21681;SDS011;11002;48.256;10.084;2023-04-06T07:10:13;13.63;;;9.00;;
21681;SDS011;11002;48.256;10.084;2023-04-06T07:12:41;11.20;;;8.00;;
21681;SDS011;11002;48.256;10.084;2023-04-06T07:15:09;15.25;;;8.52;;
21681;SDS011;11002;48.256;10.084;2023-04-06T07:17:36;10.13;;;7.78;;
21681;SDS011;11002;48.256;10.084;2023-04-06T07:20:06;10.45;;;8.02;;
21681;SDS011;11002;48.256;10.084;2023-04-06T07:22:34;10.70;;;7.63;;
21681;SDS011;11002;48.256;10.084;2023-04-06T07:25:02;13.38;;;8.00;;
21681;SDS011;11002;48.256;10.084;2023-04-06T07:27:29;11.05;;;8.25;;
21681;SDS011;11002;48.256;10.084;2023-04-06T07:29:58;10.60;;;7.93;;
21681;SDS011;11002;48.256;10.084;2023-04-06T07:32:26;13.32;;;9.10;;
21681;SDS011;11002;48.256;10.084;2023-04-06T07:34:54;19.90;;;8.48;;
21681;SDS011;11002;48.256;10.084;2023-04-06T07:37:25;12.82;;;8.10;;
21681;SDS011;11002;48.256;10.084;2023-04-06T07:39:52;11.48;;;8.50;;
21681;SDS011;11002;48.256;10.084;2023-04-06T07:42:20;13.80;;;8.73;;
21681;SDS011;11002;48.256;10.084;2023-04-06T07:44:48;10.43;;;7.45;;
21681;SDS011;11002;48.256;10.084;2023-04-06T07:47:16;11.98;;;8.45;;
21681;SDS011;11002;48.256;10.084;2023-04-06T07:49:43;11.05;;;7.93;;
21681;SDS011;11002;48.256;10.084;2023-04-06T07:52:11;11.48;;;8.30;;
21681;SDS011;11002;48.256;10.084;2023-04-06T07:54:41;12.40;;;8.55;;
21681;SDS011;11002;48.256;10.084;2023-04-06T07:57:09;14.52;;;8.10;;
21681;SDS011;11002;48.256;10.084;2023-04-06T07:59:37;11.73;;;7.97;;
21681;SDS011;11002;48.256;10.084;2023-04-06T08:02:04;10.75;;;8.00;;
21681;SDS011;11002;48.256;10.084;2023-04-06T08:04:32;10.15;;;8.15;;
21681;SDS011;11002;48.256;10.084;2023-04-06T08:06:59;11.02;;;7.75;;
21681;SDS011;11002;48.256;10.084;2023-04-06T08:09:27;11.98;;;7.78;;
21681;SDS011;11002;48.256;10.084;2023-04-06T08:11:56;9.20;;;6.68;;
21681;SDS011;11002;48.256;10.084;2023-04-06T08:14:23;9.18;;;7.10;;
21681;SDS011;11002;48.256;10.084;2023-04-06T08:16:51;10.05;;;7.22;;
21681;SDS011;11002;48.256;10.084;2023-04-06T08:19:18;11.45;;;7.55;;
21681;SDS011;11002;48.256;10.084;2023-04-06T08:21:45;9.52;;;7.25;;
21681;SDS011;11002;48.256;10.084;2023-04-06T08:24:13;10.45;;;7.25;;
21681;SDS011;11002;48.256;10.084;2023-04-06T08:26:41;9.38;;;7.82;;
21681;SDS011;11002;48.256;10.084;2023-04-06T08:29:10;10.68;;;7.68;;
21681;SDS011;11002;48.256;10.084;2023-04-06T08:31:37;10.65;;;7.45;;
21681;SDS011;11002;48.256;10.084;2023-04-06T08:34:05;9.48;;;6.63;;
21681;SDS011;11002;48.256;10.084;2023-04-06T08:36:33;10.05;;;7.35;;
21681;SDS011;11002;48.256;10.084;2023-04-06T08:39:00;9.80;;;7.60;;
21681;SDS011;11002;48.256;10.084;2023-04-06T08:41:28;8.38;;;6.85;;
21681;SDS011;11002;48.256;10.084;2023-04-06T08:43:56;9.80;;;7.55;;
21681;SDS011;11002;48.256;10.084;2023-04-06T08:46:26;11.85;;;7.53;;
21681;SDS011;11002;48.256;10.084;2023-04-06T08:48:56;10.30;;;7.55;;
21681;SDS011;11002;48.256;10.084;2023-04-06T08:51:24;10.45;;;7.63;;
21681;SDS011;11002;48.256;10.084;2023-04-06T08:53:53;9.73;;;7.60;;
21681;SDS011;11002;48.256;10.084;2023-04-06T08:56:21;9.60;;;7.63;;
21681;SDS011;11002;48.256;10.084;2023-04-06T08:58:49;9.38;;;7.38;;
21681;SDS011;11002;48.256;10.084;2023-04-06T09:01:18;11.70;;;7.85;;
21681;SDS011;11002;48.256;10.084;2023-04-06T09:03:49;8.95;;;7.50;;
21681;SDS011;11002;48.256;10.084;2023-04-06T09:06:17;10.32;;;7.68;;
21681;SDS011;11002;48.256;10.084;2023-04-06T09:08:45;9.10;;;7.13;;
21681;SDS011;11002;48.256;10.084;2023-04-06T09:11:13;10.75;;;7.85;;
21681;SDS011;11002;48.256;10.084;2023-04-06T09:13:44;7.75;;;6.95;;
21681;SDS011;11002;48.256;10.084;2023-04-06T09:16:13;10.10;;;8.05;;
21681;SDS011;11002;48.256;10.084;2023-04-06T09:18:40;10.73;;;7.72;;
21681;SDS011;11002;48.256;10.084;2023-04-06T09:21:10;10.93;;;7.95;;
21681;SDS011;11002;48.256;10.084;2023-04-06T09:23:38;8.65;;;7.40;;
21681;SDS011;11002;48.256;10.084;2023-04-06T09:26:06;10.45;;;7.65;;
21681;SDS011;11002;48.256;10.084;2023-04-06T09:28:42;9.20;;;8.30;;
21681;SDS011;11002;48.256;10.084;2023-04-06T09:31:12;8.70;;;7.80;;
21681;SDS011;11002;48.256;10.084;2023-04-06T09:33:40;8.80;;;7.90;;
21681;SDS011;11002;48.256;10.084;2023-04-06T09:36:13;9.57;;;7.90;;
21681;SDS011;11002;48.256;10.084;2023-04-06T09:38:51;10.27;;;8.50;;
21681;SDS011;11002;48.256;10.084;2023-04-06T09:41:21;8.65;;;7.85;;
21681;SDS011;11002;48.256;10.084;2023-04-06T09:43:50;9.70;;;8.02;;
21681;SDS011;11002;48.256;10.084;2023-04-06T09:46:18;10.05;;;7.78;;
21681;SDS011;11002;48.256;10.084;2023-04-06T09:48:49;7.80;;;6.97;;
21681;SDS011;11002;48.256;10.084;2023-04-06T09:51:18;11.07;;;7.43;;
21681;SDS011;11002;48.256;10.084;2023-04-06T09:56:19;8.85;;;7.95;;
21681;SDS011;11002;48.256;10.084;2023-04-06T09:58:52;9.05;;;8.15;;
21681;SDS011;11002;48.256;10.084;2023-04-06T10:01:23;9.25;;;8.23;;
21681;SDS011;11002;48.256;10.084;2023-04-06T10:03:59;9.45;;;8.32;;
21681;SDS011;11002;48.256;10.084;2023-04-06T10:06:38;7.03;;;5.75;;
21681;SDS011;11002;48.256;10.084;2023-04-06T10:09:06;7.65;;;5.93;;
21681;SDS011;11002;48.256;10.084;2023-04-06T10:11:35;6.45;;;5.85;;
21681;SDS011;11002;48.256;10.084;2023-04-06T10:14:02;7.22;;;6.10;;
21681;SDS011;11002;48.256;10.084;2023-04-06T10:16:30;7.38;;;6.57;;
21681;SDS011;11002;48.256;10.084;2023-04-06T10:18:59;7.15;;;6.43;;
21681;SDS011;11002;48.256;10.084;2023-04-06T10:21:33;7.63;;;6.38;;
21681;SDS011;11002;48.256;10.084;2023-04-06T10:24:06;8.70;;;6.45;;
21681;SDS011;11002;48.256;10.084;2023-04-06T10:26:37;7.25;;;6.55;;
21681;SDS011;11002;48.256;10.084;2023-04-06T10:29:05;7.75;;;6.95;;
21681;SDS011;11002;48.256;10.084;2023-04-06T10:31:38;8.02;;;7.22;;
21681;SDS011;11002;48.256;10.084;2023-04-06T10:34:08;8.70;;;6.82;;
21681;SDS011;11002;48.256;10.084;2023-04-06T10:36:36;9.88;;;7.38;;
21681;SDS011;11002;48.256;10.084;2023-04-06T10:39:05;5.45;;;4.25;;
21681;SDS011;11002;48.256;10.084;2023-04-06T10:41:40;6.57;;;4.72;;
21681;SDS011;11002;48.256;10.084;2023-04-06T10:44:16;5.53;;;4.55;;
21681;SDS011;11002;48.256;10.084;2023-04-06T10:46:52;5.68;;;4.70;;
21681;SDS011;11002;48.256;10.084;2023-04-06T10:49:21;7.75;;;5.97;;
21681;SDS011;11002;48.256;10.084;2023-04-06T10:51:53;8.73;;;6.20;;
21681;SDS011;11002;48.256;10.084;2023-04-06T10:54:23;5.75;;;4.22;;
21681;SDS011;11002;48.256;10.084;2023-04-06T10:56:52;6.25;;;4.10;;
21681;SDS011;11002;48.256;10.084;2023-04-06T10:59:20;3.72;;;3.10;;
21681;SDS011;11002;48.256;10.084;2023-04-06T11:01:48;5.60;;;4.70;;
21681;SDS011;11002;48.256;10.084;2023-04-06T11:04:16;4.88;;;4.38;;
21681;SDS011;11002;48.256;10.084;2023-04-06T11:06:46;4.95;;;4.38;;
21681;SDS011;11002;48.256;10.084;2023-04-06T11:09:24;4.53;;;4.15;;
21681;SDS011;11002;48.256;10.084;2023-04-06T11:11:52;5.55;;;4.57;;
21681;SDS011;11002;48.256;10.084;2023-04-06T11:14:20;6.18;;;4.15;;
21681;SDS011;11002;48.256;10.084;2023-04-06T11:16:48;5.07;;;4.43;;
21681;SDS011;11002;48.256;10.084;2023-04-06T11:19:15;4.32;;;3.92;;
21681;SDS011;11002;48.256;10.084;2023-04-06T11:21:44;6.32;;;5.22;;
21681;SDS011;11002;48.256;10.084;2023-04-06T11:24:13;4.38;;;3.97;;
21681;SDS011;11002;48.256;10.084;2023-04-06T11:26:44;4.45;;;4.05;;
21681;SDS011;11002;48.256;10.084;2023-04-06T11:29:14;4.25;;;3.80;;
21681;SDS011;11002;48.256;10.084;2023-04-06T11:31:44;4.55;;;4.13;;
21681;SDS011;11002;48.256;10.084;2023-04-06T11:34:15;5.63;;;3.67;;
21681;SDS011;11002;48.256;10.084;2023-04-06T11:36:44;4.97;;;4.07;;
21681;SDS011;11002;48.256;10.084;2023-04-06T11:39:13;5.20;;;4.22;;
21681;SDS011;11002;48.256;10.084;2023-04-06T11:41:48;5.45;;;4.88;;
21681;SDS011;11002;48.256;10.084;2023-04-06T11:44:15;6.22;;;3.92;;
21681;SDS011;11002;48.256;10.084;2023-04-06T11:46:53;5.05;;;4.55;;
21681;SDS011;11002;48.256;10.084;2023-04-06T11:49:26;5.40;;;4.63;;
21681;SDS011;11002;48.256;10.084;2023-04-06T11:51:54;4.50;;;4.10;;
21681;SDS011;11002;48.256;10.084;2023-04-06T11:54:32;5.50;;;4.55;;
21681;SDS011;11002;48.256;10.084;2023-04-06T11:57:02;6.05;;;4.93;;
21681;SDS011;11002;48.256;10.084;2023-04-06T11:59:30;6.20;;;4.32;;
21681;SDS011;11002;48.256;10.084;2023-04-06T12:01:58;4.70;;;4.30;;
21681;SDS011;11002;48.256;10.084;2023-04-06T12:04:26;4.68;;;4.10;;
21681;SDS011;11002;48.256;10.084;2023-04-06T12:06:53;4.90;;;3.92;;
21681;SDS011;11002;48.256;10.084;2023-04-06T12:09:21;6.28;;;3.88;;
21681;SDS011;11002;48.256;10.084;2023-04-06T12:11:48;5.13;;;4.43;;
21681;SDS011;11002;48.256;10.084;2023-04-06T12:14:17;5.45;;;4.78;;
21681;SDS011;11002;48.256;10.084;2023-04-06T12:16:44;4.55;;;4.15;;
21681;SDS011;11002;48.256;10.084;2023-04-06T12:19:12;10.90;;;3.97;;
21681;SDS011;11002;48.256;10.084;2023-04-06T12:21:39;5.00;;;4.45;;
21681;SDS011;11002;48.256;10.084;2023-04-06T12:24:07;4.78;;;4.20;;
21681;SDS011;11002;48.256;10.084;2023-04-06T12:26:35;5.10;;;4.45;;
21681;SDS011;11002;48.256;10.084;2023-04-06T12:29:03;7.57;;;4.68;;
21681;SDS011;11002;48.256;10.084;2023-04-06T12:31:35;5.38;;;4.72;;
21681;SDS011;11002;48.256;10.084;2023-04-06T12:34:06;5.00;;;4.60;;
21681;SDS011;11002;48.256;10.084;2023-04-06T12:36:34;5.93;;;4.20;;
21681;SDS011;11002;48.256;10.084;2023-04-06T12:39:03;3.95;;;3.58;;
21681;SDS011;11002;48.256;10.084;2023-04-06T12:41:31;4.00;;;3.60;;
21681;SDS011;11002;48.256;10.084;2023-04-06T12:43:58;5.38;;;4.38;;
21681;SDS011;11002;48.256;10.084;2023-04-06T12:46:26;4.68;;;4.25;;
21681;SDS011;11002;48.256;10.084;2023-04-06T12:48:56;5.47;;;4.97;;
21681;SDS011;11002;48.256;10.084;2023-04-06T12:51:24;5.30;;;4.80;;
21681;SDS011;11002;48.256;10.084;2023-04-06T12:53:54;8.68;;;4.53;;
21681;SDS011;11002;48.256;10.084;2023-04-06T12:56:21;6.10;;;4.47;;
21681;SDS011;11002;48.256;10.084;2023-04-06T12:58:50;5.43;;;4.38;;
21681;SDS011;11002;48.256;10.084;2023-04-06T13:01:18;4.85;;;4.20;;
21681;SDS011;11002;48.256;10.084;2023-04-06T13:03:46;4.85;;;4.22;;
21681;SDS011;11002;48.256;10.084;2023-04-06T13:06:15;8.07;;;4.72;;
21681;SDS011;11002;48.256;10.084;2023-04-06T13:08:42;5.35;;;4.43;;
21681;SDS011;11002;48.256;10.084;2023-04-06T13:11:12;6.68;;;4.38;;
21681;SDS011;11002;48.256;10.084;2023-04-06T13:13:40;4.72;;;4.32;;
21681;SDS011;11002;48.256;10.084;2023-04-06T13:16:08;4.00;;;3.70;;
21681;SDS011;11002;48.256;10.084;2023-04-06T13:18:35;5.05;;;4.18;;
21681;SDS011;11002;48.256;10.084;2023-04-06T13:21:04;4.35;;;3.72;;
21681;SDS011;11002;48.256;10.084;2023-04-06T13:23:33;5.65;;;4.13;;
21681;SDS011;11002;48.256;10.084;2023-04-06T13:26:01;5.00;;;3.90;;
21681;SDS011;11002;48.256;10.084;2023-04-06T13:28:30;4.82;;;3.83;;
21681;SDS011;11002;48.256;10.084;2023-04-06T13:30:59;5.97;;;4.25;;
21681;SDS011;11002;48.256;10.084;2023-04-06T13:33:27;5.90;;;4.20;;
21681;SDS011;11002;48.256;10.084;2023-04-06T13:35:55;6.10;;;4.35;;
21681;SDS011;11002;48.256;10.084;2023-04-06T13:38:22;6.05;;;4.32;;
21681;SDS011;11002;48.256;10.084;2023-04-06T13:40:52;4.45;;;4.05;;
21681;SDS011;11002;48.256;10.084;2023-04-06T13:43:20;5.05;;;4.53;;
21681;SDS011;11002;48.256;10.084;2023-04-06T13:45:51;4.90;;;4.25;;
21681;SDS011;11002;48.256;10.084;2023-04-06T13:48:20;5.72;;;4.35;;
21681;SDS011;11002;48.256;10.084;2023-04-06T13:50:48;5.28;;;4.78;;
21681;SDS011;11002;48.256;10.084;2023-04-06T13:53:15;5.38;;;4.30;;
21681;SDS011;11002;48.256;10.084;2023-04-06T13:55:43;6.43;;;4.55;;
21681;SDS011;11002;48.256;10.084;2023-04-06T13:58:12;8.65;;;4.85;;
21681;SDS011;11002;48.256;10.084;2023-04-06T14:00:39;5.70;;;4.85;;
21681;SDS011;11002;48.256;10.084;2023-04-06T14:03:07;6.88;;;4.00;;
21681;SDS011;11002;48.256;10.084;2023-04-06T14:05:34;5.20;;;4.70;;
21681;SDS011;11002;48.256;10.084;2023-04-06T14:08:02;4.97;;;4.50;;
21681;SDS011;11002;48.256;10.084;2023-04-06T14:10:29;5.25;;;4.38;;
21681;SDS011;11002;48.256;10.084;2023-04-06T14:12:56;5.38;;;4.28;;
21681;SDS011;11002;48.256;10.084;2023-04-06T14:15:25;5.28;;;4.78;;
21681;SDS011;11002;48.256;10.084;2023-04-06T14:17:54;5.28;;;4.78;;
21681;SDS011;11002;48.256;10.084;2023-04-06T14:20:22;7.20;;;4.88;;
21681;SDS011;11002;48.256;10.084;2023-04-06T14:22:49;5.80;;;4.78;;
21681;SDS011;11002;48.256;10.084;2023-04-06T14:25:18;4.88;;;4.47;;
21681;SDS011;11002;48.256;10.084;2023-04-06T14:27:46;5.70;;;4.35;;
21681;SDS011;11002;48.256;10.084;2023-04-06T14:30:14;5.70;;;4.43;;
21681;SDS011;11002;48.256;10.084;2023-04-06T14:32:43;7.45;;;4.32;;
21681;SDS011;11002;48.256;10.084;2023-04-06T14:35:10;5.05;;;4.53;;
21681;SDS011;11002;48.256;10.084;2023-04-06T14:37:37;10.20;;;4.82;;
21681;SDS011;11002;48.256;10.084;2023-04-06T14:40:05;6.13;;;4.63;;
21681;SDS011;11002;48.256;10.084;2023-04-06T14:42:35;6.80;;;4.45;;